Latest Weather Observations for Eildon Fire Tower

IDV60801

Issued at 10:22 pm EST Friday 20 July 2018 (issued every 10 minutes, with the page automatically refreshed every 10 minutes)

About weather observations | Map of weather stations | Latest weather observations for VIC | Other Formats
Station Details ID: 088164 Name: EILDON FIRE TOWER Lat: -37.21 Lon: 145.84 Height: 637.0 m
Data from the previous 72 hours. | See also: Recent months at Eildon Fire Tower
Date/Time
EST
Temp
°C
App
Temp
°C
Dew
Point
°C
Rel
Hum
%
Delta-T
°C
Wind Press
QNH
hPa
Press
MSL
hPa
Rain since
9am
mm
Dir  Spd
km/h
Gust
km/h
Spd
kts
Gust
kts
20/10:00pm 3.4 -3.8 3.1 98 0.1 W 30 37 16 20 - - 2.0
20/09:30pm 3.3 -3.9 3.0 98 0.1 WSW 30 35 16 19 - - 2.0
20/09:00pm 3.5 -3.3 3.2 98 0.1 W 28 35 15 19 - - 2.0
20/08:30pm 3.6 -2.4 3.3 98 0.1 W 24 32 13 17 - - 2.0
20/08:00pm 3.8 -2.5 3.5 98 0.1 W 26 33 14 18 - - 2.0
20/07:30pm 3.9 -2.4 3.6 98 0.1 W 26 37 14 20 - - 2.0
20/07:00pm 3.9 -2.8 3.5 97 0.2 W 28 37 15 20 - - 2.0
20/06:30pm 3.8 -4.3 3.4 97 0.2 W 35 44 19 24 - - 2.0
20/06:00pm 3.7 -2.7 3.3 97 0.2 W 26 33 14 18 - - 1.8
20/05:30pm 3.6 -2.0 3.2 97 0.2 WSW 22 28 12 15 - - 1.8
20/05:00pm 3.5 -2.5 3.1 97 0.2 W 24 35 13 19 - - 1.4
20/04:30pm 3.3 -3.6 2.7 96 0.3 W 28 37 15 20 - - 1.2
20/04:10pm 3.4 -4.8 2.7 95 0.3 W 35 57 19 31 - - 1.0
20/04:00pm 3.5 -5.9 2.5 93 0.4 W 41 52 22 28 - - 0.8
20/03:30pm 4.2 -4.1 1.9 85 0.9 WSW 35 59 19 32 - - 0.0
20/03:08pm 5.3 -4.6 1.4 76 1.6 W 43 61 23 33 - - 0.0
20/03:00pm 5.5 -4.5 1.1 73 1.8 W 43 63 23 34 - - 0.0
20/02:48pm 5.5 -1.6 1.4 75 1.7 W 28 54 15 29 - - 0.0
20/02:30pm 5.1 -2.3 1.9 80 1.3 W 30 43 16 23 - - 0.0
20/02:00pm 4.8 -0.7 2.0 82 1.2 WNW 20 35 11 19 - - 0.0
20/01:30pm 5.2 -0.4 1.3 76 1.6 WNW 20 33 11 18 - - 0.0
20/01:00pm 5.1 -0.2 1.6 78 1.4 W 19 33 10 18 - - 0.0
20/12:30pm 4.7 -0.8 1.6 80 1.3 W 20 32 11 17 - - 0.0
20/12:00pm 4.9 -1.0 1.6 79 1.4 W 22 35 12 19 - - 0.0
20/11:30am 4.7 -1.9 2.2 84 1.0 W 26 37 14 20 - - 0.0
20/11:00am 4.0 -2.9 2.5 90 0.6 W 28 39 15 21 - - 0.0
20/10:30am 3.2 -2.9 2.8 97 0.2 W 24 33 13 18 - - 0.0
20/10:00am 3.2 -1.2 2.9 98 0.1 W 15 22 8 12 - - 0.0
20/09:30am 3.0 -1.0 2.7 98 0.1 W 13 20 7 11 - - 0.0
20/09:00am 2.8 -2.0 2.5 98 0.1 W 17 22 9 12 - - 9.0
20/08:30am 2.8 -1.6 2.5 98 0.1 W 15 20 8 11 - - 9.0
20/08:00am 2.6 -2.3 2.2 97 0.2 W 17 26 9 14 - - 8.8
20/07:30am 2.7 -2.7 2.3 97 0.2 W 20 24 11 13 - - 8.8
20/07:00am 2.7 -2.7 2.3 97 0.2 W 20 28 11 15 - - 8.8
20/06:30am 2.7 -2.5 2.3 97 0.2 W 19 24 10 13 - - 8.8
20/06:00am 2.8 -2.6 2.4 97 0.2 W 20 24 11 13 - - 8.6
20/05:30am 2.8 -1.7 2.4 97 0.2 W 15 20 8 11 - - 8.6
20/05:00am 2.9 -1.5 2.5 97 0.2 W 15 22 8 12 - - 8.6
20/04:30am 3.0 -1.1 2.4 96 0.2 W 13 15 7 8 - - 8.6
20/04:00am 3.0 -0.7 2.4 96 0.2 W 11 17 6 9 - - 8.4
20/03:30am 3.0 -0.3 2.3 95 0.3 WNW 9 15 5 8 - - 8.4
20/03:00am 3.2 -0.5 2.3 94 0.4 WNW 11 15 6 8 - - 8.4
20/02:30am 3.3 0.0 2.4 94 0.4 WNW 9 15 5 8 - - 8.4
20/02:00am 3.1 0.2 2.4 95 0.3 N 7 11 4 6 - - 8.4
20/01:30am 3.3 0.6 2.4 94 0.4 WNW 6 9 3 5 - - 8.4
20/01:00am 3.3 -1.1 2.6 95 0.3 WSW 15 22 8 12 - - 8.4
20/12:30am 3.4 -1.4 2.5 94 0.4 W 17 20 9 11 - - 7.6
20/12:00am 3.8 0.8 2.3 90 0.6 W 7 9 4 5 - - 7.2
 
Date/Time
EST
Temp
°C
App
Temp
°C
Dew
Point
°C
Rel
Hum
%
Delta-T
°C
Wind Press
QNH
hPa
Press
MSL
hPa
Rain since
9am
mm
Dir  Spd
km/h
Gust
km/h
Spd
kts
Gust
kts
19/11:30pm 4.1 -0.4 2.1 87 0.8 WSW 15 22 8 12 - - 7.2
19/11:00pm 4.1 -0.1 1.8 85 0.9 SW 13 19 7 10 - - 6.2
19/10:30pm 3.7 -2.1 2.4 91 0.5 WSW 22 30 12 16 - - 6.2
19/10:00pm 3.0 -4.7 2.1 94 0.4 WSW 32 37 17 20 - - 6.2
19/09:34pm 3.9 -3.4 2.7 92 0.5 WSW 30 48 16 26 - - 4.4
19/09:30pm 4.1 -2.4 2.8 91 0.5 WSW 26 32 14 17 - - 4.4
19/09:00pm 4.4 -1.6 3.2 92 0.5 WSW 24 37 13 20 - - 4.2
19/08:53pm 4.5 -3.3 3.0 90 0.6 WSW 33 54 18 29 - - 4.2
19/08:40pm 5.8 -1.3 3.3 84 1.1 W 30 48 16 26 - - 4.0
19/08:30pm 8.2 3.4 5.5 83 1.3 N 20 39 11 21 - - 3.0
19/08:00pm 8.2 3.6 5.5 83 1.3 N 19 30 10 16 - - 3.0
19/07:30pm 7.5 2.8 5.1 85 1.1 NNE 19 35 10 19 - - 2.8
19/07:00pm 8.6 3.3 4.8 77 1.8 N 22 32 12 17 - - 2.8
19/06:30pm 8.5 3.7 4.5 76 1.8 N 19 28 10 15 - - 2.8
19/06:00pm 9.2 3.0 4.4 72 2.2 NNW 26 37 14 20 - - 2.8
19/05:30pm 8.4 3.1 4.8 78 1.7 N 22 33 12 18 - - 2.8
19/05:00pm 7.9 2.9 4.8 81 1.4 NNW 20 33 11 18 - - 2.8
19/04:43pm 8.4 3.1 4.8 78 1.7 WNW 22 41 12 22 - - 2.4
19/04:30pm 9.0 4.8 4.0 71 2.3 WSW 15 20 8 11 - - 0.4
19/04:00pm 9.6 5.3 3.4 65 2.8 NNE 15 26 8 14 - - 0.0
19/03:30pm 10.2 4.9 3.0 61 3.2 NNE 20 35 11 19 - - 0.0
19/03:00pm 10.1 5.8 3.2 62 3.1 NNE 15 26 8 14 - - 0.0
19/02:30pm 10.1 4.8 2.9 61 3.2 NNE 20 33 11 18 - - 0.0
19/02:00pm 10.3 5.4 2.2 57 3.6 NNE 17 33 9 18 - - 0.0
19/01:30pm 11.2 7.2 3.0 57 3.7 N 13 22 7 12 - - 0.0
19/01:00pm 11.7 8.1 3.0 55 4.0 NNE 11 22 6 12 - - 0.0
19/12:30pm 11.3 7.0 3.1 57 3.7 NNE 15 28 8 15 - - 0.0
19/12:00pm 10.6 6.2 2.7 58 3.5 NE 15 24 8 13 - - 0.0
19/11:30am 10.7 6.7 3.0 59 3.5 NNE 13 22 7 12 - - 0.0
19/11:00am 9.9 5.8 2.0 58 3.5 NNE 13 22 7 12 - - 0.0
19/10:30am 9.0 4.5 1.9 61 3.1 NNE 15 32 8 17 - - 0.0
19/10:00am 8.2 3.6 1.4 62 2.9 NNE 15 26 8 14 - - 0.0
19/09:30am 8.0 3.7 0.7 60 3.0 NNE 13 20 7 11 - - 0.0
19/09:00am 7.2 2.0 0.4 62 2.8 NNE 17 28 9 15 - - 0.0
19/08:30am 7.0 1.4 0.0 61 2.8 NNE 19 26 10 14 - - 0.0
19/08:00am 6.0 0.4 -0.3 64 2.5 NNE 19 33 10 18 - - 0.0
19/07:30am 6.1 -0.9 -0.4 63 2.6 N 26 41 14 22 - - 0.0
19/07:00am 6.3 0.5 -0.2 63 2.6 N 20 39 11 21 - - 0.0
19/06:30am 6.6 -1.1 0.1 63 2.6 N 30 43 16 23 - - 0.0
19/06:04am 6.6 -1.4 0.1 63 2.6 N 32 50 17 27 - - 0.0
19/06:00am 6.8 -1.3 0.0 62 2.8 N 32 48 17 26 - - 0.0
19/05:46am 6.7 -0.6 0.2 63 2.6 N 28 48 15 26 - - 0.0
19/05:30am 6.7 -0.6 0.2 63 2.6 N 28 41 15 22 - - 0.0
19/05:00am 6.6 -1.1 0.1 63 2.6 N 30 43 16 23 - - 0.0
19/04:30am 6.6 -0.7 0.3 64 2.6 N 28 43 15 23 - - 0.0
19/04:00am 6.4 -0.5 0.3 65 2.5 N 26 35 14 19 - - 0.0
19/03:30am 6.2 -0.3 0.1 65 2.5 N 24 32 13 17 - - 0.0
19/03:00am 6.0 -1.3 -0.1 65 2.4 N 28 37 15 20 - - 0.0
19/02:30am 6.0 -1.7 -0.1 65 2.4 N 30 39 16 21 - - 0.0
19/02:00am 5.8 -1.1 0.2 67 2.3 NNE 26 35 14 19 - - 0.0
19/01:30am 5.0 -1.1 0.6 73 1.8 NNE 22 32 12 17 - - 0.0
19/01:00am 5.3 -1.1 0.9 73 1.8 NNE 24 33 13 18 - - 0.0
19/12:30am 5.1 -1.3 1.0 75 1.7 NNE 24 33 13 18 - - 0.0
19/12:00am 5.2 -0.8 1.3 76 1.6 NNE 22 32 12 17 - - 0.0
 
Date/Time
EST
Temp
°C
App
Temp
°C
Dew
Point
°C
Rel
Hum
%
Delta-T
°C
Wind Press
QNH
hPa
Press
MSL
hPa
Rain since
9am
mm
Dir  Spd
km/h
Gust
km/h
Spd
kts
Gust
kts
18/11:30pm 5.6 -0.4 1.2 73 1.8 NNE 22 32 12 17 - - 0.0
18/11:00pm 6.0 0.0 1.3 72 1.9 NNE 22 32 12 17 - - 0.0
18/10:30pm 6.4 0.1 1.7 72 2.0 NNE 24 35 13 19 - - 0.0
18/10:00pm 6.0 1.5 2.3 77 1.6 NNE 15 24 8 13 - - 0.0
18/09:30pm 6.7 0.9 2.2 73 1.9 N 22 32 12 17 - - 0.0
18/09:00pm 6.3 1.5 2.8 78 1.5 NNE 17 28 9 15 - - 0.0
18/08:30pm 6.7 0.6 3.0 77 1.6 NNE 24 37 13 20 - - 0.0
18/08:00pm 6.7 1.6 3.3 79 1.5 NNE 19 30 10 16 - - 0.0
18/07:30pm 6.9 1.9 3.5 79 1.5 NNE 19 32 10 17 - - 0.0
18/07:00pm 6.8 1.9 3.9 82 1.3 NNE 19 28 10 15 - - 0.0
18/06:30pm 6.7 2.2 4.0 83 1.2 NNE 17 24 9 13 - - 0.0
18/06:00pm 6.7 2.5 4.0 83 1.2 NNE 15 24 8 13 - - 0.0
18/05:30pm 7.0 2.0 3.8 80 1.4 NNE 19 26 10 14 - - 0.0
18/05:00pm 7.2 2.5 3.4 77 1.7 NNE 17 24 9 13 - - 0.0
18/04:30pm 7.5 2.8 3.2 74 1.9 NNE 17 28 9 15 - - 0.0
18/04:00pm 8.0 3.8 3.7 74 1.9 NNE 15 24 8 13 - - 0.0
18/03:30pm 7.8 3.4 2.7 70 2.2 NNW 15 30 8 16 - - 0.0
18/03:00pm 7.8 3.5 3.5 74 1.9 N 15 26 8 14 - - 0.0
18/02:30pm 7.7 3.0 3.0 72 2.1 NNW 17 32 9 17 - - 0.0
18/02:00pm 8.2 4.8 3.9 74 1.9 NNW 11 20 6 11 - - 0.0
18/01:30pm 8.3 4.4 3.6 72 2.1 NNW 13 20 7 11 - - 0.0
18/01:00pm 7.3 2.6 3.2 75 1.8 NNW 17 35 9 19 - - 0.0
18/12:30pm 7.3 4.4 4.4 82 1.3 NNW 9 24 5 13 - - 0.0
18/12:00pm 6.4 2.4 4.9 90 0.7 WNW 15 24 8 13 - - 0.0
18/11:30am 4.8 1.9 4.4 97 0.2 NNE 9 15 5 8 - - 0.0
18/11:00am 4.4 1.0 4.0 97 0.2 NNE 11 17 6 9 - - 0.0
18/10:30am 4.1 1.0 3.7 97 0.2 NE 9 13 5 7 - - 0.0
18/10:00am 3.9 0.8 3.5 97 0.2 NNE 9 15 5 8 - - 0.0
18/09:30am 3.7 0.5 3.3 97 0.2 NE 9 15 5 8 - - 0.0
18/09:00am 3.4 0.6 3.0 97 0.2 NNE 7 9 4 5 - - 1.8
18/08:30am 3.1 0.2 2.7 97 0.2 N 7 13 4 7 - - 1.8
18/08:00am 3.0 0.1 2.6 97 0.2 N 7 13 4 7 - - 1.8
18/07:30am 2.8 -0.5 2.4 97 0.2 N 9 13 5 7 - - 1.8
18/07:00am 2.7 -0.1 2.3 97 0.2 N 6 7 3 4 - - 1.8
18/06:30am 2.7 -0.1 2.3 97 0.2 WNW 6 11 3 6 - - 1.8
18/06:00am 2.7 -0.3 2.3 97 0.2 N 7 11 4 6 - - 1.8
18/05:30am 2.5 -1.3 1.9 96 0.2 N 11 15 6 8 - - 1.8
18/05:00am 2.3 -1.1 1.7 96 0.2 N 9 15 5 8 - - 1.8
18/04:30am 2.4 -0.6 1.7 95 0.3 NNW 7 11 4 6 - - 1.8
18/04:00am 2.5 -0.6 1.5 93 0.4 NNW 7 9 4 5 - - 1.8
18/03:30am 2.7 -1.1 1.5 92 0.5 W 11 15 6 8 - - 1.8
18/03:00am 3.0 -1.6 1.8 92 0.5 W 15 22 8 12 - - 1.6
18/02:30am 3.0 -2.5 1.8 92 0.5 WNW 20 28 11 15 - - 1.6
18/02:00am 3.4 -0.8 1.8 89 0.7 WNW 13 24 7 13 - - 1.6
18/01:30am 3.7 -1.6 1.6 86 0.9 WNW 19 24 10 13 - - 1.6
18/01:00am 3.8 -1.6 1.5 85 0.9 WNW 19 24 10 13 - - 1.6
18/12:30am 4.2 -0.7 2.1 86 0.9 WNW 17 24 9 13 - - 1.6
18/12:00am 4.7 -0.5 2.4 85 1.0 WNW 19 28 10 15 - - 1.6
 
Date/Time
EST
Temp
°C
App
Temp
°C
Dew
Point
°C
Rel
Hum
%
Delta-T
°C
Wind Press
QNH
hPa
Press
MSL
hPa
Rain since
9am
mm
Dir  Spd
km/h
Gust
km/h
Spd
kts
Gust
kts
17/11:30pm 5.0 0.2 2.4 83 1.1 W 17 22 9 12 - - 1.6
17/11:00pm 5.2 0.0 2.4 82 1.2 W 19 26 10 14 - - 1.6
17/10:30pm 5.2 0.2 3.4 88 0.8 W 19 26 10 14 - - 1.6

Other Formats:

Comma delimited format used in spreadsheet applications
http://www.bom.gov.au/fwo/IDV60801/IDV60801.94881.axf

JavaScript Object Notation format (JSON) in row-major order
http://www.bom.gov.au/fwo/IDV60801/IDV60801.94881.json